Time;durP1;ratioP1;P1;durP2;ratioP2;P2;SDS_P1;SDS_P2;PMS_P1;PMS_P2;Temp;Humidity;BMP_temperature;BMP_pressure;BME280_temperature;BME280_humidity;BME280_pressure;Samples;Min_cycle;Max_cycle;Signal;HPM_P1;HPM_P2
2024/02/06 00:00:07;;;;;;;;;14.25;14.25;;;;;;;;5067844;28;10560;-83
2024/02/06 00:02:34;;;;;;;;;11.25;10.00;;;;;;;;5068527;28;10431;-84
2024/02/06 00:05:02;;;;;;;;;11.50;11.00;;;;;;;;5067746;28;10419;-84
2024/02/06 00:07:31;;;;;;;;;17.25;12.50;;;;;;;;5075764;28;10387;-83
2024/02/06 00:09:58;;;;;;;;;14.75;12.00;;;;;;;;5081357;28;10418;-83
2024/02/06 00:12:25;;;;;;;;;16.00;12.50;;;;;;;;5092550;28;10482;-84
2024/02/06 00:14:53;;;;;;;;;13.00;10.75;;;;;;;;5086741;28;10272;-84
2024/02/06 00:17:21;;;;;;;;;14.00;12.50;;;;;;;;5069630;28;10333;-83
2024/02/06 00:19:47;;;;;;;;;13.75;12.00;;;;;;;;5062075;28;10410;-83
2024/02/06 00:22:14;;;;;;;;;14.00;12.50;;;;;;;;5068478;28;10319;-84
2024/02/06 00:24:43;;;;;;;;;9.50;9.50;;;;;;;;5068288;28;10407;-83
2024/02/06 00:27:10;;;;;;;;;12.50;8.50;;;;;;;;5066645;28;10377;-83
2024/02/06 00:29:37;;;;;;;;;11.50;11.50;;;;;;;;5067547;28;10271;-82
2024/02/06 00:32:06;;;;;;;;;14.75;14.50;;;;;;;;5068168;28;10347;-83
2024/02/06 00:41:32;;;;;;;;;14.00;13.00;;;;;;;;5070109;28;10210;-83
2024/02/06 00:43:59;;;;;;;;;13.25;12.25;;;;;;;;5067595;28;10370;-83
2024/02/06 00:46:27;;;;;;;;;13.50;12.00;;;;;;;;5070780;28;10322;-82
2024/02/06 00:48:54;;;;;;;;;12.25;10.75;;;;;;;;5073137;28;10360;-83
2024/02/06 00:51:21;;;;;;;;;13.50;13.50;;;;;;;;5076886;28;10277;-82
2024/02/06 00:53:49;;;;;;;;;12.00;12.00;;;;;;;;5074584;28;10415;-83
2024/02/06 00:56:16;;;;;;;;;13.00;13.00;;;;;;;;5074570;28;10255;-81
2024/02/06 00:58:45;;;;;;;;;13.75;12.00;;;;;;;;5070660;28;10356;-82
2024/02/06 01:01:14;;;;;;;;;11.00;11.00;;;;;;;;5068480;28;10157;-82
2024/02/06 01:03:42;;;;;;;;;9.00;9.00;;;;;;;;5056281;28;10454;-82
2024/02/06 01:06:10;;;;;;;;;14.50;14.50;;;;;;;;5053148;28;10397;-82
2024/02/06 01:08:37;;;;;;;;;9.00;9.00;;;;;;;;5070168;28;10322;-83
2024/02/06 01:11:05;;;;;;;;;12.00;12.00;;;;;;;;5070772;28;10331;-82
2024/02/06 01:13:32;;;;;;;;;12.75;11.00;;;;;;;;5070581;28;10259;-83
2024/02/06 01:16:01;;;;;;;;;13.00;11.25;;;;;;;;5058295;28;10409;-83
2024/02/06 01:18:28;;;;;;;;;11.00;11.00;;;;;;;;5052616;28;10412;-83
2024/02/06 01:20:55;;;;;;;;;12.75;12.00;;;;;;;;5053657;28;10451;-82
2024/02/06 01:23:23;;;;;;;;;13.00;11.75;;;;;;;;5059683;28;10361;-82
2024/02/06 01:25:50;;;;;;;;;11.75;10.25;;;;;;;;5070387;28;10392;-81
2024/02/06 01:35:46;;;;;;;;;15.00;15.00;;;;;;;;5064856;28;10282;-83
2024/02/06 01:38:17;;;;;;;;;12.50;12.00;;;;;;;;5055722;28;10502;-82
2024/02/06 01:40:47;;;;;;;;;14.25;14.25;;;;;;;;5053409;28;10468;-82
2024/02/06 01:43:17;;;;;;;;;12.75;12.75;;;;;;;;5063786;28;10423;-82
2024/02/06 01:45:45;;;;;;;;;17.75;14.25;;;;;;;;5069649;28;10390;-82
2024/02/06 01:48:13;;;;;;;;;17.50;15.25;;;;;;;;5070772;28;10554;-82
2024/02/06 01:50:42;;;;;;;;;14.25;11.25;;;;;;;;5069655;28;10470;-82
2024/02/06 01:53:10;;;;;;;;;13.00;11.75;;;;;;;;5058486;28;10564;-84
2024/02/06 01:55:38;;;;;;;;;17.25;15.75;;;;;;;;5070317;28;10575;-83
2024/02/06 01:58:06;;;;;;;;;11.50;11.00;;;;;;;;5070135;28;10617;-83
2024/02/06 02:00:34;;;;;;;;;16.75;16.75;;;;;;;;5071136;28;10448;-83
2024/02/06 02:03:02;;;;;;;;;11.50;11.50;;;;;;;;5054418;28;10526;-81
2024/02/06 02:05:29;;;;;;;;;14.50;14.50;;;;;;;;5069510;28;10605;-82
2024/02/06 02:07:57;;;;;;;;;15.75;13.00;;;;;;;;5067460;28;10343;-82
2024/02/06 02:10:24;;;;;;;;;8.75;8.75;;;;;;;;5068522;28;10598;-82
2024/02/06 02:12:53;;;;;;;;;12.00;12.00;;;;;;;;5070355;28;10478;-81
2024/02/06 02:15:20;;;;;;;;;13.75;12.25;;;;;;;;5081162;28;10339;-82
2024/02/06 02:17:51;;;;;;;;;14.75;14.75;;;;;;;;5088720;28;10340;-82
2024/02/06 02:27:05;;;;;;;;;15.75;13.25;;;;;;;;5063859;28;10338;-81
2024/02/06 02:29:33;;;;;;;;;12.75;12.75;;;;;;;;5065266;28;10444;-82
2024/02/06 02:32:04;;;;;;;;;10.25;10.25;;;;;;;;5062225;28;10310;-81
2024/02/06 02:49:01;;;;;;;;;15.25;12.00;;;;;;;;5059555;28;10209;-83
2024/02/06 02:51:32;;;;;;;;;11.00;11.00;;;;;;;;5068172;28;10340;-83
2024/02/06 03:00:44;;;;;;;;;16.00;16.00;;;;;;;;5051431;28;10410;-82
2024/02/06 03:03:14;;;;;;;;;16.00;15.00;;;;;;;;5052953;28;11206;-83
2024/02/06 03:05:43;;;;;;;;;13.75;11.50;;;;;;;;5059509;28;10333;-84
2024/02/06 03:08:13;;;;;;;;;17.50;14.75;;;;;;;;5054936;28;10277;-83
2024/02/06 03:10:41;;;;;;;;;14.00;13.00;;;;;;;;5060227;28;10997;-84
2024/02/06 03:13:09;;;;;;;;;11.75;11.75;;;;;;;;5065538;28;10248;-83
2024/02/06 03:15:36;;;;;;;;;12.25;12.00;;;;;;;;5068610;28;10203;-82
2024/02/06 03:18:03;;;;;;;;;15.00;15.00;;;;;;;;5068894;28;10457;-81
2024/02/06 03:20:31;;;;;;;;;12.75;11.50;;;;;;;;5069073;28;10461;-82
2024/02/06 03:23:00;;;;;;;;;11.00;10.00;;;;;;;;5066444;28;10375;-82
2024/02/06 03:25:35;;;;;;;;;16.50;15.00;;;;;;;;5053565;28;10309;-83
2024/02/06 03:28:03;;;;;;;;;11.25;11.25;;;;;;;;5067676;28;10364;-83
2024/02/06 03:30:33;;;;;;;;;9.00;9.00;;;;;;;;5062679;28;10169;-82
2024/02/06 03:33:02;;;;;;;;;13.00;11.75;;;;;;;;5068757;28;11065;-84
2024/02/06 03:35:30;;;;;;;;;11.75;11.75;;;;;;;;5065399;28;10494;-83
2024/02/06 03:37:57;;;;;;;;;12.00;12.00;;;;;;;;5059597;28;10331;-82
2024/02/06 03:40:28;;;;;;;;;11.00;11.00;;;;;;;;5068083;28;10259;-84
2024/02/06 03:42:56;;;;;;;;;12.75;12.75;;;;;;;;5068788;28;10321;-83
2024/02/06 03:45:23;;;;;;;;;15.00;13.50;;;;;;;;5065879;28;10313;-84
2024/02/06 03:47:50;;;;;;;;;14.25;14.25;;;;;;;;5071443;28;10410;-83
2024/02/06 03:50:18;;;;;;;;;16.50;15.75;;;;;;;;5067772;28;10416;-84
2024/02/06 03:52:45;;;;;;;;;10.50;10.50;;;;;;;;5069913;28;10447;-84
2024/02/06 03:55:13;;;;;;;;;12.00;11.50;;;;;;;;5066389;28;10509;-83
2024/02/06 03:57:41;;;;;;;;;12.75;12.00;;;;;;;;5067201;28;10492;-84
2024/02/06 04:00:10;;;;;;;;;12.00;12.00;;;;;;;;5059124;28;10435;-83
2024/02/06 04:02:37;;;;;;;;;12.00;10.25;;;;;;;;5053952;28;11097;-84
2024/02/06 04:05:05;;;;;;;;;15.00;11.75;;;;;;;;5061842;28;10614;-84
2024/02/06 04:07:33;;;;;;;;;17.00;15.25;;;;;;;;5052737;28;10515;-82
2024/02/06 04:10:00;;;;;;;;;19.75;16.00;;;;;;;;5057043;28;10723;-83
2024/02/06 04:12:27;;;;;;;;;18.50;13.50;;;;;;;;5066723;28;10497;-83
2024/02/06 04:14:56;;;;;;;;;14.00;14.00;;;;;;;;5068626;28;10531;-83
2024/02/06 04:17:23;;;;;;;;;17.00;12.75;;;;;;;;5067162;28;10496;-83
2024/02/06 04:19:50;;;;;;;;;14.00;14.00;;;;;;;;5068653;28;10454;-83
2024/02/06 04:22:21;;;;;;;;;13.00;10.00;;;;;;;;5068440;28;10310;-83
2024/02/06 04:24:51;;;;;;;;;15.25;13.00;;;;;;;;5073350;28;10417;-83
2024/02/06 04:27:21;;;;;;;;;17.75;15.00;;;;;;;;5072104;28;10247;-83
2024/02/06 04:29:48;;;;;;;;;13.00;13.00;;;;;;;;5076613;28;10345;-80
2024/02/06 04:32:19;;;;;;;;;13.00;11.75;;;;;;;;5075171;28;10287;-83
2024/02/06 04:34:49;;;;;;;;;16.00;13.00;;;;;;;;5071674;28;10250;-83
2024/02/06 04:37:19;;;;;;;;;16.50;13.75;;;;;;;;5068846;28;10350;-83
2024/02/06 04:39:46;;;;;;;;;17.25;13.75;;;;;;;;5074802;28;10321;-83
2024/02/06 04:42:13;;;;;;;;;13.25;13.00;;;;;;;;5072657;28;10263;-83
2024/02/06 04:44:43;;;;;;;;;15.25;15.25;;;;;;;;5071999;28;10403;-83
2024/02/06 04:47:12;;;;;;;;;17.00;14.50;;;;;;;;5071399;28;10202;-83
2024/02/06 04:49:40;;;;;;;;;17.25;15.00;;;;;;;;5075152;28;10244;-84
2024/02/06 04:52:08;;;;;;;;;10.25;10.25;;;;;;;;5087899;28;10357;-82
2024/02/06 04:54:35;;;;;;;;;14.00;11.25;;;;;;;;5082006;28;10238;-83
2024/02/06 04:57:03;;;;;;;;;12.25;12.25;;;;;;;;5071178;28;10182;-82
2024/02/06 04:59:34;;;;;;;;;13.75;13.75;;;;;;;;5059879;28;10312;-83
2024/02/06 05:02:01;;;;;;;;;15.00;15.00;;;;;;;;5068414;28;10147;-83
2024/02/06 05:04:31;;;;;;;;;16.50;15.25;;;;;;;;5069893;28;10101;-84
2024/02/06 05:07:09;;;;;;;;;13.25;13.25;;;;;;;;5076436;28;10094;-82
2024/02/06 05:09:39;;;;;;;;;13.25;13.25;;;;;;;;5062168;28;10171;-81
2024/02/06 05:12:07;;;;;;;;;16.25;13.50;;;;;;;;5069407;28;10016;-82
2024/02/06 05:14:36;;;;;;;;;18.00;14.00;;;;;;;;5073649;28;10046;-82
2024/02/06 05:17:05;;;;;;;;;11.50;11.50;;;;;;;;5071947;28;10236;-82
2024/02/06 05:19:32;;;;;;;;;14.00;12.00;;;;;;;;5071263;28;10298;-82
2024/02/06 05:22:01;;;;;;;;;16.50;15.00;;;;;;;;5070123;28;10939;-83
2024/02/06 05:24:31;;;;;;;;;11.00;10.75;;;;;;;;5073017;28;11045;-79
2024/02/06 05:26:59;;;;;;;;;16.00;13.75;;;;;;;;5072334;28;10101;-82
2024/02/06 05:29:27;;;;;;;;;20.50;18.75;;;;;;;;5071015;28;10341;-83
2024/02/06 05:31:54;;;;;;;;;17.50;13.75;;;;;;;;5069268;28;10144;-82
2024/02/06 05:34:22;;;;;;;;;17.75;16.00;;;;;;;;5067856;28;10957;-81
2024/02/06 05:36:49;;;;;;;;;13.75;13.75;;;;;;;;5068901;28;10413;-82
2024/02/06 05:39:17;;;;;;;;;15.00;14.75;;;;;;;;5069935;28;10096;-84
2024/02/06 05:41:45;;;;;;;;;13.75;12.25;;;;;;;;5070650;28;10171;-84
2024/02/06 05:44:18;;;;;;;;;19.50;15.25;;;;;;;;5069885;28;10207;-85
2024/02/06 05:46:48;;;;;;;;;12.00;12.00;;;;;;;;5070951;28;10221;-83
2024/02/06 05:49:15;;;;;;;;;17.25;13.00;;;;;;;;5069131;28;10093;-84
2024/02/06 05:51:45;;;;;;;;;12.00;12.00;;;;;;;;5070231;28;10097;-84
2024/02/06 05:54:15;;;;;;;;;17.00;14.50;;;;;;;;5068787;28;10031;-82
2024/02/06 05:56:44;;;;;;;;;14.75;14.75;;;;;;;;5070313;28;10112;-83
2024/02/06 05:59:11;;;;;;;;;15.50;14.75;;;;;;;;5069041;28;10117;-83
2024/02/06 06:01:38;;;;;;;;;9.75;9.75;;;;;;;;5068937;28;10113;-82
2024/02/06 06:04:06;;;;;;;;;17.00;17.00;;;;;;;;5069224;28;10202;-84
2024/02/06 06:06:33;;;;;;;;;14.00;12.00;;;;;;;;5070135;28;10108;-84
2024/02/06 06:09:00;;;;;;;;;14.25;11.50;;;;;;;;5062646;28;10115;-82
2024/02/06 06:11:27;;;;;;;;;13.50;13.50;;;;;;;;5062697;28;10254;-84
2024/02/06 06:13:56;;;;;;;;;15.00;14.75;;;;;;;;5070757;28;10119;-83
2024/02/06 06:16:23;;;;;;;;;14.00;10.75;;;;;;;;5071321;28;10199;-79
2024/02/06 06:18:51;;;;;;;;;17.75;17.25;;;;;;;;5072288;28;10021;-82
2024/02/06 06:21:18;;;;;;;;;15.00;15.00;;;;;;;;5072848;28;10133;-84
2024/02/06 06:23:45;;;;;;;;;21.75;19.75;;;;;;;;5072454;28;10198;-79
2024/02/06 06:26:13;;;;;;;;;12.50;12.50;;;;;;;;5072585;28;10142;-82
2024/02/06 06:28:42;;;;;;;;;18.00;16.00;;;;;;;;5072970;28;10189;-82
2024/02/06 06:31:14;;;;;;;;;13.50;12.75;;;;;;;;5069913;28;10162;-77
2024/02/06 06:33:41;;;;;;;;;18.25;16.50;;;;;;;;5067731;28;10237;-80
2024/02/06 06:36:09;;;;;;;;;14.25;14.25;;;;;;;;5067435;28;10215;-77
2024/02/06 06:38:36;;;;;;;;;15.25;13.25;;;;;;;;5068879;28;10275;-83
2024/02/06 06:41:04;;;;;;;;;11.00;11.00;;;;;;;;5068750;28;10181;-80
2024/02/06 06:43:31;;;;;;;;;14.00;14.00;;;;;;;;5068726;28;10178;-81
2024/02/06 06:45:58;;;;;;;;;19.00;14.00;;;;;;;;5066182;28;10219;-81
2024/02/06 06:48:33;;;;;;;;;14.50;14.50;;;;;;;;5068544;28;10266;-81
2024/02/06 06:51:00;;;;;;;;;15.25;11.50;;;;;;;;5066633;28;10205;-82
2024/02/06 06:53:27;;;;;;;;;12.25;12.25;;;;;;;;5066338;28;10164;-80
2024/02/06 06:55:54;;;;;;;;;13.75;13.25;;;;;;;;5064232;28;10180;-83
2024/02/06 06:58:22;;;;;;;;;13.50;13.50;;;;;;;;5067336;28;10027;-83
2024/02/06 07:00:49;;;;;;;;;5.25;4.00;;;;;;;;5068598;28;10118;-81
2024/02/06 07:03:17;;;;;;;;;13.00;13.00;;;;;;;;5071426;28;10113;-85
2024/02/06 07:05:45;;;;;;;;;11.25;11.25;;;;;;;;5070477;28;10141;-81
2024/02/06 07:08:16;;;;;;;;;12.00;12.00;;;;;;;;5069820;28;10069;-81
2024/02/06 07:10:43;;;;;;;;;17.00;17.00;;;;;;;;5055220;28;10166;-82
2024/02/06 07:13:12;;;;;;;;;13.25;13.25;;;;;;;;5068548;28;10102;-82
2024/02/06 07:15:39;;;;;;;;;14.00;13.75;;;;;;;;5067342;28;10580;-80
2024/02/06 07:18:09;;;;;;;;;14.00;14.00;;;;;;;;5068076;28;10052;-78
2024/02/06 07:20:38;;;;;;;;;13.00;13.00;;;;;;;;5057190;28;10056;-83
2024/02/06 07:23:07;;;;;;;;;15.50;15.00;;;;;;;;5069858;28;9934;-83
2024/02/06 07:25:34;;;;;;;;;15.25;15.25;;;;;;;;5070687;28;10088;-79
2024/02/06 07:28:04;;;;;;;;;16.25;13.00;;;;;;;;5086056;28;10243;-77
2024/02/06 07:30:32;;;;;;;;;13.50;13.50;;;;;;;;5075541;28;9862;-83
2024/02/06 07:33:01;;;;;;;;;14.00;12.25;;;;;;;;5069508;28;10092;-83
2024/02/06 07:35:29;;;;;;;;;10.25;10.25;;;;;;;;5069222;28;10188;-82
2024/02/06 07:37:56;;;;;;;;;12.75;11.00;;;;;;;;5068271;28;10015;-79
2024/02/06 07:40:25;;;;;;;;;12.00;11.25;;;;;;;;5068485;28;9899;-83
2024/02/06 07:42:52;;;;;;;;;9.50;9.50;;;;;;;;5067604;28;9936;-79
2024/02/06 07:45:20;;;;;;;;;14.75;14.00;;;;;;;;5067749;28;10219;-82
2024/02/06 07:47:48;;;;;;;;;16.25;11.00;;;;;;;;5066711;28;9969;-76
2024/02/06 07:50:15;;;;;;;;;12.00;12.00;;;;;;;;5068325;28;10090;-79
2024/02/06 07:52:45;;;;;;;;;13.25;10.00;;;;;;;;5067169;28;9962;-82
2024/02/06 07:55:13;;;;;;;;;10.25;10.25;;;;;;;;5067413;28;9978;-82
2024/02/06 07:57:44;;;;;;;;;8.50;8.00;;;;;;;;5066938;28;9981;-81
2024/02/06 08:00:12;;;;;;;;;16.25;12.75;;;;;;;;5073204;28;9784;-79
2024/02/06 08:02:41;;;;;;;;;12.00;11.50;;;;;;;;5074337;28;9888;-80
2024/02/06 08:05:08;;;;;;;;;9.50;9.50;;;;;;;;5073134;28;9767;-78
2024/02/06 08:07:38;;;;;;;;;11.00;10.00;;;;;;;;5074854;28;9786;-80
2024/02/06 08:10:15;;;;;;;;;13.25;11.25;;;;;;;;5061747;28;9924;-79
2024/02/06 08:12:43;;;;;;;;;13.75;11.75;;;;;;;;5075818;28;9889;-79
2024/02/06 08:15:11;;;;;;;;;11.50;9.25;;;;;;;;5073609;28;9967;-80
2024/02/06 08:17:40;;;;;;;;;12.75;10.00;;;;;;;;5074236;28;9779;-77
2024/02/06 08:20:09;;;;;;;;;16.25;11.00;;;;;;;;5072800;28;9715;-81
2024/02/06 08:22:36;;;;;;;;;11.50;9.50;;;;;;;;5071213;28;9819;-77
2024/02/06 08:25:06;;;;;;;;;11.25;11.25;;;;;;;;5068443;28;9730;-81
2024/02/06 08:27:33;;;;;;;;;10.75;10.75;;;;;;;;5069767;28;10409;-80
2024/02/06 08:30:03;;;;;;;;;10.50;10.50;;;;;;;;5071132;28;10459;-83
2024/02/06 08:32:31;;;;;;;;;7.75;7.75;;;;;;;;5070338;28;9724;-75
2024/02/06 08:34:58;;;;;;;;;11.25;10.00;;;;;;;;5070618;28;9775;-79
2024/02/06 08:37:26;;;;;;;;;11.75;11.00;;;;;;;;5070155;28;9878;-79
2024/02/06 08:39:53;;;;;;;;;10.50;10.25;;;;;;;;5070042;28;9846;-75
2024/02/06 08:42:21;;;;;;;;;9.75;9.75;;;;;;;;5070613;28;9806;-80
2024/02/06 08:44:48;;;;;;;;;8.00;6.00;;;;;;;;5068337;28;9853;-76
2024/02/06 08:47:17;;;;;;;;;10.00;8.00;;;;;;;;5070601;28;9837;-79
2024/02/06 08:49:44;;;;;;;;;8.75;8.25;;;;;;;;5070725;28;9759;-79
2024/02/06 08:52:12;;;;;;;;;13.75;11.00;;;;;;;;5070806;28;9767;-80
2024/02/06 08:54:39;;;;;;;;;11.00;10.75;;;;;;;;5071398;28;10460;-81
2024/02/06 08:57:06;;;;;;;;;11.50;11.00;;;;;;;;5068868;28;9783;-75
2024/02/06 08:59:33;;;;;;;;;11.00;11.00;;;;;;;;5070068;28;9759;-81
2024/02/06 09:02:02;;;;;;;;;12.75;12.25;;;;;;;;5069537;28;9812;-78
2024/02/06 09:04:31;;;;;;;;;10.50;8.25;;;;;;;;5066562;28;9860;-77
2024/02/06 09:07:02;;;;;;;;;11.00;11.00;;;;;;;;5066654;28;9756;-79
2024/02/06 09:09:29;;;;;;;;;12.25;8.75;;;;;;;;5051176;28;9794;-74
2024/02/06 09:11:58;;;;;;;;;9.25;8.75;;;;;;;;5067157;28;9771;-75
2024/02/06 09:14:26;;;;;;;;;12.25;8.75;;;;;;;;5070432;28;9944;-78
2024/02/06 09:16:53;;;;;;;;;11.50;11.50;;;;;;;;5069144;28;9880;-78
2024/02/06 09:19:21;;;;;;;;;12.00;10.50;;;;;;;;5070444;28;9951;-77
2024/02/06 09:21:49;;;;;;;;;12.75;9.25;;;;;;;;5068829;28;9920;-79
2024/02/06 09:24:17;;;;;;;;;7.75;5.75;;;;;;;;5069806;28;9927;-80
2024/02/06 09:26:44;;;;;;;;;9.25;7.25;;;;;;;;5068165;28;9894;-81
2024/02/06 09:29:14;;;;;;;;;9.50;7.75;;;;;;;;5068011;28;9771;-80
2024/02/06 09:31:44;;;;;;;;;7.75;7.75;;;;;;;;5067266;28;9729;-80
2024/02/06 09:34:14;;;;;;;;;7.00;7.00;;;;;;;;5057044;28;9954;-80
2024/02/06 09:36:42;;;;;;;;;9.00;8.25;;;;;;;;5068182;28;9659;-79
2024/02/06 09:39:14;;;;;;;;;6.25;6.25;;;;;;;;5070171;28;9719;-75
2024/02/06 09:41:46;;;;;;;;;6.50;6.50;;;;;;;;5067603;28;9684;-81
2024/02/06 09:44:14;;;;;;;;;11.50;11.50;;;;;;;;5067723;28;9676;-81
2024/02/06 09:46:45;;;;;;;;;7.00;7.00;;;;;;;;5058959;28;9699;-78
2024/02/06 09:49:14;;;;;;;;;7.75;6.50;;;;;;;;5069988;28;9537;-78
2024/02/06 09:51:50;;;;;;;;;9.25;7.25;;;;;;;;5071886;28;9745;-80
2024/02/06 09:54:20;;;;;;;;;6.50;5.50;;;;;;;;5072653;28;9545;-75
2024/02/06 09:56:48;;;;;;;;;7.00;7.00;;;;;;;;5073185;28;9654;-78
2024/02/06 09:59:15;;;;;;;;;5.75;5.75;;;;;;;;5075234;28;9541;-79
2024/02/06 10:01:44;;;;;;;;;9.50;7.25;;;;;;;;5073049;28;9362;-80
2024/02/06 10:04:15;;;;;;;;;7.00;7.00;;;;;;;;5071034;28;9645;-78
2024/02/06 10:06:45;;;;;;;;;7.00;6.25;;;;;;;;5073233;28;9593;-82
2024/02/06 10:09:17;;;;;;;;;8.00;6.25;;;;;;;;5070404;28;9637;-79
2024/02/06 10:11:45;;;;;;;;;9.50;6.00;;;;;;;;5073816;28;9441;-78
2024/02/06 10:14:15;;;;;;;;;5.25;5.25;;;;;;;;5070071;28;9399;-77
2024/02/06 10:16:45;;;;;;;;;6.50;6.50;;;;;;;;5069539;28;10302;-82
2024/02/06 10:19:13;;;;;;;;;6.25;5.50;;;;;;;;5069652;28;9614;-78
2024/02/06 10:21:42;;;;;;;;;5.00;5.00;;;;;;;;5066794;28;9511;-82
2024/02/06 10:24:10;;;;;;;;;5.00;5.00;;;;;;;;5067409;28;9494;-81
2024/02/06 10:26:38;;;;;;;;;4.67;4.67;;;;;;;;5066745;28;9591;-83
2024/02/06 10:29:08;;;;;;;;;6.50;5.50;;;;;;;;5067333;28;9326;-84
2024/02/06 10:31:37;;;;;;;;;7.25;6.50;;;;;;;;5067650;28;9435;-81
2024/02/06 10:34:08;;;;;;;;;4.50;2.00;;;;;;;;5067792;28;9572;-83
2024/02/06 10:36:36;;;;;;;;;6.00;6.00;;;;;;;;5064777;28;9393;-80
2024/02/06 10:39:03;;;;;;;;;5.00;5.00;;;;;;;;5068015;28;9609;-81
2024/02/06 10:41:30;;;;;;;;;7.00;4.00;;;;;;;;5069832;28;9484;-79
2024/02/06 10:43:58;;;;;;;;;3.67;2.00;;;;;;;;5070410;28;9414;-80
2024/02/06 10:46:27;;;;;;;;;5.00;5.00;;;;;;;;5067484;28;9406;-85
2024/02/06 10:49:03;;;;;;;;;5.00;5.00;;;;;;;;5067411;28;9366;-77
2024/02/06 10:51:32;;;;;;;;;4.00;2.33;;;;;;;;5071056;28;9381;-80
2024/02/06 10:54:00;;;;;;;;;7.33;4.67;;;;;;;;5070208;28;9392;-77
2024/02/06 10:56:35;;;;;;;;;4.00;4.00;;;;;;;;5060070;28;9342;-76
2024/02/06 10:59:07;;;;;;;;;8.67;7.00;;;;;;;;5071632;28;9301;-81
2024/02/06 11:01:37;;;;;;;;;4.67;4.67;;;;;;;;5071856;28;9298;-80
2024/02/06 11:04:12;;;;;;;;;4.33;4.33;;;;;;;;5071914;28;9847;-78
2024/02/06 11:06:45;;;;;;;;;9.33;5.33;;;;;;;;5074158;28;9382;-82
2024/02/06 11:09:15;;;;;;;;;6.67;5.33;;;;;;;;5064924;28;9358;-79
2024/02/06 11:11:45;;;;;;;;;9.00;6.33;;;;;;;;5068157;28;9223;-80
2024/02/06 11:14:18;;;;;;;;;5.33;5.33;;;;;;;;5068750;28;9326;-85
2024/02/06 11:16:50;;;;;;;;;7.00;5.67;;;;;;;;5066651;28;9177;-77
2024/02/06 11:19:23;;;;;;;;;7.00;5.67;;;;;;;;5071532;28;9176;-84
2024/02/06 11:21:55;;;;;;;;;6.00;4.33;;;;;;;;5070671;28;9183;-83
2024/02/06 11:24:23;;;;;;;;;5.33;5.00;;;;;;;;5068772;28;9162;-84
2024/02/06 11:26:51;;;;;;;;;3.33;3.33;;;;;;;;5067406;28;9121;-82
2024/02/06 11:29:18;;;;;;;;;8.00;6.00;;;;;;;;5068400;28;9326;-86
2024/02/06 11:31:47;;;;;;;;;5.00;5.00;;;;;;;;5066903;28;9142;-80
2024/02/06 11:34:18;;;;;;;;;5.00;5.00;;;;;;;;5068726;28;9020;-85
2024/02/06 11:36:48;;;;;;;;;13.33;6.33;;;;;;;;5068429;28;9081;-85
2024/02/06 11:39:15;;;;;;;;;4.33;4.33;;;;;;;;5068912;28;9096;-80
2024/02/06 11:41:43;;;;;;;;;5.33;5.33;;;;;;;;5059017;28;9088;-86
2024/02/06 11:44:12;;;;;;;;;6.33;5.00;;;;;;;;5069260;28;9186;-82
2024/02/06 11:46:54;;;;;;;;;4.00;4.00;;;;;;;;5068647;28;9180;-80
2024/02/06 11:49:23;;;;;;;;;8.00;6.33;;;;;;;;5067959;28;9006;-76
2024/02/06 11:51:53;;;;;;;;;6.67;6.00;;;;;;;;5071319;28;9048;-83
2024/02/06 11:54:21;;;;;;;;;9.33;4.00;;;;;;;;5072068;28;9215;-80
2024/02/06 11:56:49;;;;;;;;;7.00;7.00;;;;;;;;5072774;28;9119;-84
2024/02/06 11:59:17;;;;;;;;;6.67;6.67;;;;;;;;5069565;28;9027;-80
2024/02/06 12:01:44;;;;;;;;;7.00;7.00;;;;;;;;5067321;28;9910;-79
2024/02/06 12:04:24;;;;;;;;;6.33;6.33;;;;;;;;5064469;28;9088;-79
2024/02/06 12:06:51;;;;;;;;;6.00;4.75;;;;;;;;5064068;28;9027;-81
2024/02/06 12:09:20;;;;;;;;;5.00;5.00;;;;;;;;5065200;28;9694;-81
2024/02/06 12:11:47;;;;;;;;;3.00;2.00;;;;;;;;5067417;28;9174;-78
2024/02/06 12:14:16;;;;;;;;;7.00;5.00;;;;;;;;5067443;28;9049;-74
2024/02/06 12:16:45;;;;;;;;;7.00;7.00;;;;;;;;5052054;28;8956;-81
2024/02/06 12:19:14;;;;;;;;;6.67;5.33;;;;;;;;5058646;28;8858;-77
2024/02/06 12:21:44;;;;;;;;;7.00;5.75;;;;;;;;5066116;28;8949;-81
2024/02/06 12:24:12;;;;;;;;;6.00;6.00;;;;;;;;5069847;28;8891;-78
2024/02/06 12:26:40;;;;;;;;;7.00;6.00;;;;;;;;5068032;28;9635;-76
2024/02/06 12:29:07;;;;;;;;;4.00;4.00;;;;;;;;5058775;28;9709;-79
2024/02/06 12:31:36;;;;;;;;;8.33;6.33;;;;;;;;5075020;28;8812;-73
2024/02/06 12:34:06;;;;;;;;;6.67;6.67;;;;;;;;5060945;28;8948;-76
2024/02/06 12:36:36;;;;;;;;;6.33;6.33;;;;;;;;5067020;28;9018;-80
2024/02/06 12:39:12;;;;;;;;;6.33;6.00;;;;;;;;5054226;28;8979;-76
2024/02/06 12:41:40;;;;;;;;;7.00;7.00;;;;;;;;5055434;28;9086;-80
2024/02/06 12:44:07;;;;;;;;;6.00;6.00;;;;;;;;5066485;28;9016;-79
2024/02/06 12:46:35;;;;;;;;;7.33;7.33;;;;;;;;5069845;28;9057;-78
2024/02/06 12:49:04;;;;;;;;;7.33;7.33;;;;;;;;5070279;28;9772;-75
2024/02/06 12:51:32;;;;;;;;;6.33;4.00;;;;;;;;5070557;28;9134;-77
2024/02/06 12:54:02;;;;;;;;;5.00;5.00;;;;;;;;5070858;28;9216;-74
2024/02/06 12:56:32;;;;;;;;;7.00;5.33;;;;;;;;5072574;28;9111;-75
2024/02/06 12:58:59;;;;;;;;;7.33;7.33;;;;;;;;5072597;28;9056;-75
2024/02/06 13:01:26;;;;;;;;;6.00;6.00;;;;;;;;5070118;28;8943;-79
2024/02/06 13:03:58;;;;;;;;;6.00;6.00;;;;;;;;5067776;28;9026;-76
2024/02/06 13:06:27;;;;;;;;;3.33;2.00;;;;;;;;5070448;28;9170;-78
2024/02/06 13:08:54;;;;;;;;;6.67;6.67;;;;;;;;5064944;28;9073;-80
2024/02/06 13:11:23;;;;;;;;;6.00;5.33;;;;;;;;5061471;28;9097;-78
2024/02/06 13:13:55;;;;;;;;;10.00;7.67;;;;;;;;5066978;28;9789;-79
2024/02/06 13:16:23;;;;;;;;;10.33;10.00;;;;;;;;5068378;28;9278;-80
2024/02/06 13:18:57;;;;;;;;;9.67;7.33;;;;;;;;5068786;28;9112;-80
2024/02/06 13:21:24;;;;;;;;;8.33;7.00;;;;;;;;5070618;28;8930;-79
2024/02/06 13:23:51;;;;;;;;;8.67;7.33;;;;;;;;5069912;28;9127;-79
2024/02/06 13:26:20;;;;;;;;;6.00;6.00;;;;;;;;5069542;28;9109;-80
2024/02/06 13:29:01;;;;;;;;;6.00;6.00;;;;;;;;5070458;28;9224;-77
2024/02/06 13:31:31;;;;;;;;;7.67;7.67;;;;;;;;5069489;28;8960;-80
2024/02/06 13:33:59;;;;;;;;;7.33;7.33;;;;;;;;5072132;28;9215;-85
2024/02/06 13:36:26;;;;;;;;;7.00;6.67;;;;;;;;5072476;28;8984;-79
2024/02/06 13:38:54;;;;;;;;;7.00;7.00;;;;;;;;5069417;28;9017;-78
2024/02/06 13:41:21;;;;;;;;;8.67;7.00;;;;;;;;5068198;28;8956;-80
2024/02/06 13:43:48;;;;;;;;;10.00;6.67;;;;;;;;5070726;28;8918;-77
2024/02/06 13:46:18;;;;;;;;;7.67;7.67;;;;;;;;5070837;28;9113;-80
2024/02/06 13:48:45;;;;;;;;;9.00;9.00;;;;;;;;5066571;28;9012;-79
2024/02/06 13:51:13;;;;;;;;;8.33;6.00;;;;;;;;5067253;28;9055;-79
2024/02/06 13:53:42;;;;;;;;;6.33;6.00;;;;;;;;5064806;28;8914;-77
2024/02/06 13:56:09;;;;;;;;;7.25;7.25;;;;;;;;5068732;28;9106;-79
2024/02/06 13:58:39;;;;;;;;;5.75;5.00;;;;;;;;5064309;28;8832;-81
2024/02/06 14:01:08;;;;;;;;;8.00;6.00;;;;;;;;5063994;28;8801;-76
2024/02/06 14:03:36;;;;;;;;;10.33;5.00;;;;;;;;5068791;28;8840;-75
2024/02/06 14:06:04;;;;;;;;;5.50;5.50;;;;;;;;5062607;28;9738;-80
2024/02/06 14:08:31;;;;;;;;;7.25;6.50;;;;;;;;5062439;28;8833;-79
2024/02/06 14:11:01;;;;;;;;;8.25;7.00;;;;;;;;5057632;28;8845;-80
2024/02/06 14:13:31;;;;;;;;;7.75;7.00;;;;;;;;5066258;28;8862;-79
2024/02/06 14:16:00;;;;;;;;;6.75;6.75;;;;;;;;5069235;28;8888;-76
2024/02/06 14:18:34;;;;;;;;;7.00;5.25;;;;;;;;5069284;28;8845;-80
2024/02/06 14:21:02;;;;;;;;;6.75;6.00;;;;;;;;5064083;28;8886;-74
2024/02/06 14:23:38;;;;;;;;;10.75;6.75;;;;;;;;5064848;28;8841;-78
2024/02/06 14:26:06;;;;;;;;;5.75;5.75;;;;;;;;5062642;28;8871;-79
2024/02/06 14:28:33;;;;;;;;;5.75;5.00;;;;;;;;5062820;28;8844;-80
2024/02/06 14:31:00;;;;;;;;;5.00;4.75;;;;;;;;5067194;28;8835;-80
2024/02/06 14:33:32;;;;;;;;;6.25;5.25;;;;;;;;5068993;28;8829;-81
2024/02/06 14:36:04;;;;;;;;;6.25;4.75;;;;;;;;5066985;28;9292;-75
2024/02/06 14:38:31;;;;;;;;;10.00;6.25;;;;;;;;5054614;28;8850;-81
2024/02/06 14:40:58;;;;;;;;;6.00;6.00;;;;;;;;5060469;28;9649;-80
2024/02/06 14:43:26;;;;;;;;;6.25;6.25;;;;;;;;5068793;28;8894;-76
2024/02/06 14:45:53;;;;;;;;;6.00;6.00;;;;;;;;5068047;28;8832;-78
2024/02/06 14:48:20;;;;;;;;;3.75;3.75;;;;;;;;5068503;28;8856;-80
2024/02/06 14:50:48;;;;;;;;;3.75;3.75;;;;;;;;5055872;28;8860;-80
2024/02/06 14:53:16;;;;;;;;;6.00;5.50;;;;;;;;5063846;28;8874;-80
2024/02/06 14:55:43;;;;;;;;;5.25;5.25;;;;;;;;5064057;28;8985;-77
2024/02/06 14:58:11;;;;;;;;;8.25;5.75;;;;;;;;5054811;28;8854;-76
2024/02/06 15:00:38;;;;;;;;;3.75;3.75;;;;;;;;5067133;28;8785;-79
2024/02/06 15:03:08;;;;;;;;;3.75;3.25;;;;;;;;5067882;28;8876;-79
2024/02/06 15:05:35;;;;;;;;;4.00;4.00;;;;;;;;5071061;28;8860;-76
2024/02/06 15:08:03;;;;;;;;;4.00;4.00;;;;;;;;5069690;28;8982;-78
2024/02/06 15:10:32;;;;;;;;;7.75;5.50;;;;;;;;5055280;28;8836;-81
2024/02/06 15:12:59;;;;;;;;;4.50;4.50;;;;;;;;5068044;28;8867;-75
2024/02/06 15:15:28;;;;;;;;;4.50;4.00;;;;;;;;5067450;28;8829;-75
2024/02/06 15:18:01;;;;;;;;;6.50;6.00;;;;;;;;5069308;28;8844;-76
2024/02/06 15:20:31;;;;;;;;;6.50;6.50;;;;;;;;5068379;28;8982;-78
2024/02/06 15:22:58;;;;;;;;;5.00;5.00;;;;;;;;5066922;28;8860;-78
2024/02/06 15:25:28;;;;;;;;;8.50;5.25;;;;;;;;5068523;28;8840;-79